Time,TemperatureF,DewpointF,PressureIn,WindDirection,WindDirectionDegrees,WindSpeedMPH,WindSpeedGustMPH,Humidity,HourlyPrecipIn,Conditions,Clouds,dailyrainin,SoftwareType,DateUTC
2013-05-31 00:01:00,74.5,53.0,28.14,NNE,22,0.0,0.0,47,0.00,,---,0.00,VWS V14.01,2013-05-31 05:01:00,
2013-05-31 00:07:00,74.5,53.0,28.14,NNE,22,0.0,0.0,47,0.00,,---,0.00,VWS V14.01,2013-05-31 05:07:00,
2013-05-31 00:12:00,74.7,53.1,28.14,NNE,22,0.0,0.0,47,0.00,,---,0.00,VWS V14.01,2013-05-31 05:12:00,
2013-05-31 00:18:00,74.7,53.1,28.17,NNE,22,0.0,0.0,47,0.00,,---,0.00,VWS V14.01,2013-05-31 05:18:00,
2013-05-31 00:23:00,74.7,53.1,28.17,NNE,22,0.0,0.0,47,0.00,,---,0.00,VWS V14.01,2013-05-31 05:23:00,
2013-05-31 00:28:00,74.7,53.1,28.17,NNE,22,0.0,0.0,47,0.00,,---,0.00,VWS V14.01,2013-05-31 05:28:00,
2013-05-31 00:34:00,74.8,53.3,28.17,NNE,22,0.0,0.0,47,0.00,,---,0.00,VWS V14.01,2013-05-31 05:34:00,
2013-05-31 00:39:00,74.8,53.3,28.17,NNE,22,0.0,0.0,47,0.00,,---,0.00,VWS V14.01,2013-05-31 05:39:00,
2013-05-31 00:45:00,74.8,53.3,28.17,NNE,22,0.0,0.0,47,0.00,,---,0.00,VWS V14.01,2013-05-31 05:45:00,
2013-05-31 00:51:00,74.8,53.3,28.17,NNE,22,0.0,0.0,47,0.00,,---,0.00,VWS V14.01,2013-05-31 05:51:00,
2013-05-31 00:56:00,74.8,53.3,28.17,NNE,22,0.0,0.0,47,0.00,,---,0.00,VWS V14.01,2013-05-31 05:56:00,
2013-05-31 01:01:00,74.8,53.3,28.17,NNE,22,0.0,0.0,47,0.00,,---,0.00,VWS V14.01,2013-05-31 06:01:00,
2013-05-31 01:07:00,74.8,53.3,28.17,NNE,22,0.0,0.0,47,0.00,,---,0.00,VWS V14.01,2013-05-31 06:07:00,
2013-05-31 01:13:00,74.8,53.3,28.17,NNE,22,0.0,0.0,47,0.00,,---,0.00,VWS V14.01,2013-05-31 06:13:00,
2013-05-31 01:18:00,74.8,53.3,28.17,NNE,22,0.0,0.0,47,0.00,,---,0.00,VWS V14.01,2013-05-31 06:18:00,
2013-05-31 01:24:00,74.8,53.3,28.17,NNE,22,0.0,0.0,47,0.00,,---,0.00,VWS V14.01,2013-05-31 06:24:00,
2013-05-31 01:30:00,74.8,53.3,28.17,NNE,22,0.0,0.0,47,0.00,,---,0.00,VWS V14.01,2013-05-31 06:30:00,
2013-05-31 01:36:00,74.8,53.3,28.17,NNE,22,0.0,0.0,47,0.00,,---,0.00,VWS V14.01,2013-05-31 06:36:00,
2013-05-31 01:41:00,74.8,53.3,28.17,NNE,22,0.0,0.0,47,0.00,,---,0.00,VWS V14.01,2013-05-31 06:41:00,
2013-05-31 01:47:00,74.8,53.3,28.17,NNE,22,0.0,0.0,47,0.00,,---,0.00,VWS V14.01,2013-05-31 06:47:00,
2013-05-31 01:53:00,74.8,53.3,28.17,NNE,22,0.0,0.0,47,0.00,,---,0.00,VWS V14.01,2013-05-31 06:53:00,
2013-05-31 01:59:00,74.8,53.3,28.17,NNE,22,0.0,0.0,47,0.00,,---,0.00,VWS V14.01,2013-05-31 06:59:00,
2013-05-31 02:04:00,74.8,53.3,28.17,NNE,22,0.0,0.0,47,0.00,,---,0.00,VWS V14.01,2013-05-31 07:04:00,
2013-05-31 02:10:00,74.8,53.3,28.17,NNE,22,0.0,0.0,47,0.00,,---,0.00,VWS V14.01,2013-05-31 07:10:00,
2013-05-31 02:16:00,74.8,53.3,28.17,NNE,22,0.0,0.0,47,0.00,,---,0.00,VWS V14.01,2013-05-31 07:16:00,
2013-05-31 02:21:00,74.8,52.7,28.17,NNE,22,0.0,0.0,46,0.00,,---,0.00,VWS V14.01,2013-05-31 07:21:00,
2013-05-31 02:27:00,74.7,52.5,28.17,NNE,22,0.0,0.0,46,0.00,,---,0.00,VWS V14.01,2013-05-31 07:27:00,
2013-05-31 02:33:00,74.7,52.5,28.17,NNE,22,0.0,0.0,46,0.00,,---,0.00,VWS V14.01,2013-05-31 07:33:00,
2013-05-31 02:39:00,74.7,52.5,28.17,NNE,22,0.0,0.0,46,0.00,,---,0.00,VWS V14.01,2013-05-31 07:39:00,
2013-05-31 02:45:00,74.7,52.5,28.17,NNE,22,0.0,0.0,46,0.00,,---,0.00,VWS V14.01,2013-05-31 07:45:00,
2013-05-31 02:51:00,74.7,52.5,28.17,NNE,22,0.0,0.0,46,0.00,,---,0.00,VWS V14.01,2013-05-31 07:51:00,
2013-05-31 02:56:00,74.7,52.5,28.17,NNE,22,0.0,0.0,46,0.00,,---,0.00,VWS V14.01,2013-05-31 07:56:00,
2013-05-31 03:02:00,74.7,52.5,28.17,NNE,22,0.0,0.0,46,0.00,,---,0.00,VWS V14.01,2013-05-31 08:02:00,
2013-05-31 03:07:00,74.7,52.5,28.17,NNE,22,0.0,0.0,46,0.00,,---,0.00,VWS V14.01,2013-05-31 08:07:00,
2013-05-31 03:13:00,74.7,52.5,28.17,NNE,22,0.0,0.0,46,0.00,,---,0.00,VWS V14.01,2013-05-31 08:13:00,
2013-05-31 03:18:00,74.7,52.5,28.17,NNE,22,0.0,0.0,46,0.00,,---,0.00,VWS V14.01,2013-05-31 08:18:00,
2013-05-31 03:24:00,74.7,52.5,28.17,NNE,22,0.0,0.0,46,0.00,,---,0.00,VWS V14.01,2013-05-31 08:24:00,
2013-05-31 03:30:00,74.7,52.5,28.17,NNE,22,0.0,0.0,46,0.00,,---,0.00,VWS V14.01,2013-05-31 08:30:00,
2013-05-31 03:35:00,74.5,51.8,28.17,NNE,22,0.0,0.0,45,0.00,,---,0.00,VWS V14.01,2013-05-31 08:35:00,
2013-05-31 03:41:00,74.5,51.8,28.17,NNE,22,0.0,0.0,45,0.00,,---,0.00,VWS V14.01,2013-05-31 08:41:00,
2013-05-31 03:47:00,74.5,51.8,28.17,NNE,22,0.0,0.0,45,0.00,,---,0.00,VWS V14.01,2013-05-31 08:47:00,
2013-05-31 03:53:00,74.5,51.8,28.17,NNE,22,0.0,0.0,45,0.00,,---,0.00,VWS V14.01,2013-05-31 08:53:00,
2013-05-31 03:59:00,74.5,51.8,28.17,NNE,22,0.0,0.0,45,0.00,,---,0.00,VWS V14.01,2013-05-31 08:59:00,
2013-05-31 04:04:00,74.5,51.8,28.17,NNE,22,0.0,0.0,45,0.00,,---,0.00,VWS V14.01,2013-05-31 09:04:00,
2013-05-31 04:10:00,74.5,51.8,28.17,NNE,22,0.0,0.0,45,0.00,,---,0.00,VWS V14.01,2013-05-31 09:10:00,
2013-05-31 04:15:00,74.5,51.8,28.17,NNE,22,0.0,0.0,45,0.00,,---,0.00,VWS V14.01,2013-05-31 09:15:00,
2013-05-31 04:21:00,74.3,51.6,28.17,NNE,22,0.0,0.0,45,0.00,,---,0.00,VWS V14.01,2013-05-31 09:21:00,
2013-05-31 04:26:00,74.3,51.6,28.17,NNE,22,0.0,0.0,45,0.00,,---,0.00,VWS V14.01,2013-05-31 09:26:00,
2013-05-31 04:31:00,74.3,51.6,28.17,NNE,22,0.0,0.0,45,0.00,,---,0.00,VWS V14.01,2013-05-31 09:31:00,
2013-05-31 04:36:00,74.3,51.6,28.17,NNE,22,0.0,0.0,45,0.00,,---,0.00,VWS V14.01,2013-05-31 09:36:00,
2013-05-31 04:41:00,74.3,51.6,28.17,NNE,22,0.0,0.0,45,0.00,,---,0.00,VWS V14.01,2013-05-31 09:41:00,
2013-05-31 04:47:00,74.3,51.6,28.17,NNE,22,0.0,0.0,45,0.00,,---,0.00,VWS V14.01,2013-05-31 09:47:00,
2013-05-31 04:52:00,74.3,51.6,28.17,NNE,22,0.0,0.0,45,0.00,,---,0.00,VWS V14.01,2013-05-31 09:52:00,
2013-05-31 04:57:00,74.3,51.6,28.17,NNE,22,0.0,0.0,45,0.00,,---,0.00,VWS V14.01,2013-05-31 09:57:00,
2013-05-31 05:03:00,74.3,51.6,28.14,NNE,22,0.0,0.0,45,0.00,,---,0.00,VWS V14.01,2013-05-31 10:03:00,
2013-05-31 05:08:00,74.1,51.4,28.14,NNE,22,0.0,0.0,45,0.00,,---,0.00,VWS V14.01,2013-05-31 10:08:00,
2013-05-31 05:14:00,74.1,51.4,28.17,NNE,22,0.0,0.0,45,0.00,,---,0.00,VWS V14.01,2013-05-31 10:14:00,
2013-05-31 05:20:00,74.1,51.4,28.17,NNE,22,0.0,0.0,45,0.00,,---,0.00,VWS V14.01,2013-05-31 10:20:00,
2013-05-31 05:26:00,74.1,51.4,28.17,NNE,22,0.0,0.0,45,0.00,,---,0.00,VWS V14.01,2013-05-31 10:26:00,
2013-05-31 05:32:00,74.1,51.4,28.14,NNE,22,0.0,0.0,45,0.00,,---,0.00,VWS V14.01,2013-05-31 10:32:00,
2013-05-31 05:38:00,74.1,51.4,28.14,NNE,22,0.0,0.0,45,0.00,,---,0.00,VWS V14.01,2013-05-31 10:38:00,
2013-05-31 05:43:00,74.1,51.4,28.17,NNE,22,0.0,0.0,45,0.00,,---,0.00,VWS V14.01,2013-05-31 10:43:00,
2013-05-31 05:49:00,74.1,51.4,28.17,NNE,22,0.0,0.0,45,0.00,,---,0.00,VWS V14.01,2013-05-31 10:49:00,
2013-05-31 05:55:00,73.9,51.3,28.17,NNE,22,0.0,0.0,45,0.00,,---,0.00,VWS V14.01,2013-05-31 10:55:00,
2013-05-31 06:00:00,73.9,51.3,28.17,NNE,22,0.0,0.0,45,0.00,,---,0.00,VWS V14.01,2013-05-31 11:00:00,
2013-05-31 06:05:00,73.9,51.3,28.17,NNE,22,0.0,0.0,45,0.00,,---,0.00,VWS V14.01,2013-05-31 11:05:00,
2013-05-31 06:10:00,73.9,51.3,28.17,NNE,22,0.0,0.0,45,0.00,,---,0.00,VWS V14.01,2013-05-31 11:10:00,
2013-05-31 06:16:00,73.9,51.3,28.17,NNE,22,0.0,0.0,45,0.00,,---,0.00,VWS V14.01,2013-05-31 11:16:00,
2013-05-31 06:22:00,73.9,51.3,28.17,NNE,22,0.0,0.0,45,0.00,,---,0.00,VWS V14.01,2013-05-31 11:22:00,
2013-05-31 06:27:00,73.9,51.3,28.17,NNE,22,0.0,0.0,45,0.00,,---,0.00,VWS V14.01,2013-05-31 11:27:00,
2013-05-31 06:33:00,73.9,51.3,28.17,NNE,22,0.0,0.0,45,0.00,,---,0.00,VWS V14.01,2013-05-31 11:33:00,
2013-05-31 06:39:00,73.9,51.3,28.17,NNE,22,0.0,0.0,45,0.00,,---,0.00,VWS V14.01,2013-05-31 11:39:00,
2013-05-31 06:44:00,73.9,51.3,28.17,NNE,22,0.0,0.0,45,0.00,,---,0.00,VWS V14.01,2013-05-31 11:44:00,
2013-05-31 06:50:00,73.8,51.1,28.17,NNE,22,0.0,0.0,45,0.00,,---,0.00,VWS V14.01,2013-05-31 11:50:00,
2013-05-31 06:56:00,73.8,51.1,28.17,NNE,22,0.0,0.0,45,0.00,,---,0.00,VWS V14.01,2013-05-31 11:56:00,
2013-05-31 07:01:00,73.8,51.1,28.17,NNE,22,0.0,0.0,45,0.00,,---,0.00,VWS V14.01,2013-05-31 12:01:00,
2013-05-31 07:06:00,73.8,51.1,28.17,NNE,22,0.0,0.0,45,0.00,,---,0.00,VWS V14.01,2013-05-31 12:06:00,
2013-05-31 07:12:00,73.8,51.1,28.17,NNE,22,0.0,0.0,45,0.00,,---,0.00,VWS V14.01,2013-05-31 12:12:00,
2013-05-31 07:18:00,73.8,51.1,28.17,NNE,22,0.0,0.0,45,0.00,,---,0.00,VWS V14.01,2013-05-31 12:18:00,
2013-05-31 07:23:00,73.8,51.1,28.17,NNE,22,0.0,0.0,45,0.00,,---,0.00,VWS V14.01,2013-05-31 12:23:00,
2013-05-31 07:29:00,73.8,51.1,28.17,NNE,22,0.0,0.0,45,0.00,,---,0.00,VWS V14.01,2013-05-31 12:29:00,
2013-05-31 07:34:00,73.8,51.1,28.17,NNE,22,0.0,0.0,45,0.00,,---,0.00,VWS V14.01,2013-05-31 12:34:00,
2013-05-31 07:40:00,73.8,51.1,28.17,NNE,22,0.0,0.0,45,0.00,,---,0.00,VWS V14.01,2013-05-31 12:40:00,
2013-05-31 07:46:00,73.8,51.1,28.17,NNE,22,0.0,0.0,45,0.00,,---,0.00,VWS V14.01,2013-05-31 12:46:00,
2013-05-31 07:51:00,73.8,51.1,28.17,NNE,22,0.0,0.0,45,0.00,,---,0.00,VWS V14.01,2013-05-31 12:51:00,
2013-05-31 07:57:00,73.8,51.1,28.17,NNE,22,0.0,0.0,45,0.00,,---,0.00,VWS V14.01,2013-05-31 12:57:00,
2013-05-31 08:03:00,73.8,51.1,28.17,NNE,22,0.0,0.0,45,0.00,,---,0.00,VWS V14.01,2013-05-31 13:03:00,
2013-05-31 08:09:00,73.8,51.1,28.17,NNE,22,0.0,0.0,45,0.00,,---,0.00,VWS V14.01,2013-05-31 13:09:00,
2013-05-31 08:14:00,73.8,51.1,28.20,NNE,22,0.0,0.0,45,0.00,,---,0.00,VWS V14.01,2013-05-31 13:14:00,
2013-05-31 08:20:00,73.8,51.1,28.20,NNE,22,0.0,0.0,45,0.00,,---,0.00,VWS V14.01,2013-05-31 13:20:00,
2013-05-31 08:26:00,73.8,51.1,28.20,NNE,22,0.0,0.0,45,0.00,,---,0.00,VWS V14.01,2013-05-31 13:26:00,
2013-05-31 08:31:00,73.8,51.1,28.20,NNE,22,0.0,0.0,45,0.00,,---,0.00,VWS V14.01,2013-05-31 13:31:00,
2013-05-31 08:37:00,73.8,51.1,28.20,NNE,22,0.0,0.0,45,0.00,,---,0.00,VWS V14.01,2013-05-31 13:37:00,
2013-05-31 08:42:00,73.8,51.1,28.20,NNE,22,0.0,0.0,45,0.00,,---,0.00,VWS V14.01,2013-05-31 13:42:00,
2013-05-31 08:48:00,73.8,50.5,28.20,NNE,22,0.0,0.0,44,0.00,,---,0.00,VWS V14.01,2013-05-31 13:48:00,
2013-05-31 08:53:00,73.8,50.5,28.20,NNE,22,0.0,0.0,44,0.00,,---,0.00,VWS V14.01,2013-05-31 13:53:00,
2013-05-31 08:59:00,73.8,50.5,28.20,NNE,22,0.0,0.0,44,0.00,,---,0.00,VWS V14.01,2013-05-31 13:59:00,
2013-05-31 09:04:00,73.8,50.5,28.20,NNE,22,0.0,0.0,44,0.00,,---,0.00,VWS V14.01,2013-05-31 14:04:00,
2013-05-31 09:10:00,73.8,50.5,28.20,NNE,22,0.0,0.0,44,0.00,,---,0.00,VWS V14.01,2013-05-31 14:10:00,
2013-05-31 09:16:00,73.8,50.5,28.20,NNE,22,0.0,0.0,44,0.00,,---,0.00,VWS V14.01,2013-05-31 14:16:00,
2013-05-31 09:22:00,73.8,50.5,28.20,NNE,22,0.0,0.0,44,0.00,,---,0.00,VWS V14.01,2013-05-31 14:22:00,
2013-05-31 09:28:00,73.6,49.7,28.20,NNE,22,0.0,0.0,43,0.00,,---,0.00,VWS V14.01,2013-05-31 14:28:00,
2013-05-31 09:51:00,73.8,49.9,28.20,NNE,22,0.0,0.0,43,0.00,,---,0.00,VWS V14.01,2013-05-31 14:51:00,
2013-05-31 09:56:00,73.8,49.9,28.20,NNE,22,0.0,0.0,43,0.00,,---,0.00,VWS V14.01,2013-05-31 14:56:00,
2013-05-31 10:01:00,73.8,49.9,28.20,NNE,22,0.0,0.0,43,0.00,,---,0.00,VWS V14.01,2013-05-31 15:01:00,
2013-05-31 10:07:00,73.8,49.9,28.20,NNE,22,0.0,0.0,43,0.00,,---,0.00,VWS V14.01,2013-05-31 15:07:00,
2013-05-31 10:12:00,73.9,50.1,28.20,NNE,22,0.0,0.0,43,0.00,,---,0.00,VWS V14.01,2013-05-31 15:12:00,
2013-05-31 10:18:00,73.9,50.1,28.20,NNE,22,0.0,0.0,43,0.00,,---,0.00,VWS V14.01,2013-05-31 15:18:00,
2013-05-31 10:23:00,73.9,50.1,28.20,NNE,22,0.0,0.0,43,0.00,,---,0.00,VWS V14.01,2013-05-31 15:23:00,
2013-05-31 10:29:00,74.1,50.2,28.20,NNE,22,0.0,0.0,43,0.00,,---,0.00,VWS V14.01,2013-05-31 15:29:00,
2013-05-31 10:35:00,74.1,50.2,28.20,NNE,22,0.0,0.0,43,0.00,,---,0.00,VWS V14.01,2013-05-31 15:35:00,
2013-05-31 10:41:00,74.1,50.2,28.20,NNE,22,0.0,0.0,43,0.00,,---,0.00,VWS V14.01,2013-05-31 15:41:00,
2013-05-31 10:47:00,74.3,50.4,28.20,NNE,22,0.0,0.0,43,0.00,,---,0.00,VWS V14.01,2013-05-31 15:47:00,
2013-05-31 10:52:00,74.3,50.4,28.20,NNE,22,0.0,0.0,43,0.00,,---,0.00,VWS V14.01,2013-05-31 15:52:00,
2013-05-31 10:58:00,74.3,50.4,28.20,NNE,22,0.0,0.0,43,0.00,,---,0.00,VWS V14.01,2013-05-31 15:58:00,
2013-05-31 11:04:00,74.3,50.4,28.20,NNE,22,0.0,0.0,43,0.00,,---,0.00,VWS V14.01,2013-05-31 16:04:00,
2013-05-31 11:09:00,74.3,50.4,28.20,NNE,22,0.0,0.0,43,0.00,,---,0.00,VWS V14.01,2013-05-31 16:09:00,
2013-05-31 11:15:00,74.3,50.4,28.20,NNE,22,0.0,0.0,43,0.00,,---,0.00,VWS V14.01,2013-05-31 16:15:00,
2013-05-31 11:20:00,74.3,50.4,28.20,NNE,22,0.0,0.0,43,0.00,,---,0.00,VWS V14.01,2013-05-31 16:20:00,
2013-05-31 11:25:00,74.3,50.4,28.20,NNE,22,0.0,0.0,43,0.00,,---,0.00,VWS V14.01,2013-05-31 16:25:00,
2013-05-31 11:30:00,74.3,50.4,28.20,NNE,22,0.0,0.0,43,0.00,,---,0.00,VWS V14.01,2013-05-31 16:30:00,
2013-05-31 11:36:00,74.3,50.4,28.20,NNE,22,0.0,0.0,43,0.00,,---,0.00,VWS V14.01,2013-05-31 16:36:00,
2013-05-31 11:41:00,74.3,50.4,28.20,NNE,22,0.0,0.0,43,0.00,,---,0.00,VWS V14.01,2013-05-31 16:41:00,
2013-05-31 11:47:00,74.3,50.4,28.20,NNE,22,0.0,0.0,43,0.00,,---,0.00,VWS V14.01,2013-05-31 16:47:00,
2013-05-31 11:53:00,74.5,50.5,28.20,NNE,22,0.0,0.0,43,0.00,,---,0.00,VWS V14.01,2013-05-31 16:53:00,
2013-05-31 11:59:00,74.5,50.5,28.20,NNE,22,0.0,0.0,43,0.00,,---,0.00,VWS V14.01,2013-05-31 16:59:00,
2013-05-31 12:05:00,74.5,50.5,28.20,NNE,22,0.0,0.0,43,0.00,,---,0.00,VWS V14.01,2013-05-31 17:05:00,
2013-05-31 12:11:00,74.5,50.5,28.20,NNE,22,0.0,0.0,43,0.00,,---,0.00,VWS V14.01,2013-05-31 17:11:00,
2013-05-31 12:16:00,74.5,50.5,28.20,NNE,22,0.0,0.0,43,0.00,,---,0.00,VWS V14.01,2013-05-31 17:16:00,
2013-05-31 12:21:00,74.7,50.7,28.20,NNE,22,0.0,0.0,43,0.00,,---,0.00,VWS V14.01,2013-05-31 17:21:00,
2013-05-31 12:27:00,74.7,50.7,28.20,NNE,22,0.0,0.0,43,0.00,,---,0.00,VWS V14.01,2013-05-31 17:27:00,
2013-05-31 12:32:00,74.7,50.7,28.20,NNE,22,0.0,0.0,43,0.00,,---,0.00,VWS V14.01,2013-05-31 17:32:00,
2013-05-31 12:38:00,74.7,50.7,28.20,NNE,22,0.0,0.0,43,0.00,,---,0.00,VWS V14.01,2013-05-31 17:38:00,
2013-05-31 12:43:00,74.7,50.7,28.20,NNE,22,0.0,0.0,43,0.00,,---,0.00,VWS V14.01,2013-05-31 17:43:00,
2013-05-31 12:49:00,74.7,50.7,28.20,NNE,22,0.0,0.0,43,0.00,,---,0.00,VWS V14.01,2013-05-31 17:49:00,
2013-05-31 12:55:00,74.8,50.9,28.20,NNE,22,0.0,0.0,43,0.00,,---,0.00,VWS V14.01,2013-05-31 17:55:00,
2013-05-31 13:01:00,74.8,51.5,28.20,NNE,22,0.0,0.0,44,0.00,,---,0.00,VWS V14.01,2013-05-31 18:01:00,
2013-05-31 13:06:00,74.8,51.5,28.20,NNE,22,0.0,0.0,44,0.00,,---,0.00,VWS V14.01,2013-05-31 18:06:00,
2013-05-31 13:11:00,74.8,51.5,28.20,NNE,22,0.0,0.0,44,0.00,,---,0.00,VWS V14.01,2013-05-31 18:11:00,
2013-05-31 13:17:00,74.8,51.5,28.20,NNE,22,0.0,0.0,44,0.00,,---,0.00,VWS V14.01,2013-05-31 18:17:00,
2013-05-31 13:23:00,74.8,51.5,28.20,NNE,22,0.0,0.0,44,0.00,,---,0.00,VWS V14.01,2013-05-31 18:23:00,
2013-05-31 13:28:00,74.8,51.5,28.20,NNE,22,0.0,0.0,44,0.00,,---,0.00,VWS V14.01,2013-05-31 18:28:00,
2013-05-31 13:33:00,74.8,51.5,28.20,NNE,22,0.0,0.0,44,0.00,,---,0.00,VWS V14.01,2013-05-31 18:33:00,
2013-05-31 13:38:00,75.0,51.7,28.20,NNE,22,0.0,0.0,44,0.00,,---,0.00,VWS V14.01,2013-05-31 18:38:00,
2013-05-31 13:44:00,75.0,51.7,28.17,NNE,22,0.0,0.0,44,0.00,,---,0.00,VWS V14.01,2013-05-31 18:44:00,
2013-05-31 13:49:00,75.0,51.7,28.17,NNE,22,0.0,0.0,44,0.00,,---,0.00,VWS V14.01,2013-05-31 18:49:00,
2013-05-31 13:55:00,75.0,51.7,28.17,NNE,22,0.0,0.0,44,0.00,,---,0.00,VWS V14.01,2013-05-31 18:55:00,
2013-05-31 14:00:00,75.2,51.8,28.17,NNE,22,0.0,0.0,44,0.00,,---,0.00,VWS V14.01,2013-05-31 19:00:00,
2013-05-31 14:06:00,75.2,51.8,28.17,NNE,22,0.0,0.0,44,0.00,,---,0.00,VWS V14.01,2013-05-31 19:06:00,
2013-05-31 14:11:00,75.2,51.8,28.17,NNE,22,0.0,0.0,44,0.00,,---,0.00,VWS V14.01,2013-05-31 19:11:00,
2013-05-31 14:17:00,75.4,52.6,28.17,NNE,22,0.0,0.0,45,0.00,,---,0.00,VWS V14.01,2013-05-31 19:17:00,
2013-05-31 14:23:00,75.4,52.6,28.17,NNE,22,0.0,0.0,45,0.00,,---,0.00,VWS V14.01,2013-05-31 19:23:00,
2013-05-31 14:29:00,75.4,52.6,28.17,NNE,22,0.0,0.0,45,0.00,,---,0.00,VWS V14.01,2013-05-31 19:29:00,
2013-05-31 14:34:00,75.4,52.6,28.17,NNE,22,0.0,0.0,45,0.00,,---,0.00,VWS V14.01,2013-05-31 19:34:00,
2013-05-31 14:39:00,75.4,52.6,28.17,NNE,22,0.0,0.0,45,0.00,,---,0.00,VWS V14.01,2013-05-31 19:39:00,
2013-05-31 14:44:00,75.4,52.6,28.17,NNE,22,0.0,0.0,45,0.00,,---,0.00,VWS V14.01,2013-05-31 19:44:00,
2013-05-31 14:50:00,75.4,52.6,28.17,NNE,22,0.0,0.0,45,0.00,,---,0.00,VWS V14.01,2013-05-31 19:50:00,
2013-05-31 14:55:00,75.6,52.8,28.17,NNE,22,0.0,0.0,45,0.00,,---,0.00,VWS V14.01,2013-05-31 19:55:00,
2013-05-31 15:01:00,75.6,52.8,28.17,NNE,22,0.0,0.0,45,0.00,,---,0.00,VWS V14.01,2013-05-31 20:01:00,
2013-05-31 15:06:00,75.6,52.8,28.17,NNE,22,0.0,0.0,45,0.00,,---,0.00,VWS V14.01,2013-05-31 20:06:00,
2013-05-31 15:11:00,75.6,52.8,28.17,NNE,22,0.0,0.0,45,0.00,,---,0.00,VWS V14.01,2013-05-31 20:11:00,
2013-05-31 15:16:00,75.6,52.8,28.17,NNE,22,0.0,0.0,45,0.00,,---,0.00,VWS V14.01,2013-05-31 20:16:00,
2013-05-31 15:22:00,75.6,52.8,28.17,NNE,22,0.0,0.0,45,0.00,,---,0.00,VWS V14.01,2013-05-31 20:22:00,
2013-05-31 15:28:00,75.6,52.8,28.17,NNE,22,0.0,0.0,45,0.00,,---,0.00,VWS V14.01,2013-05-31 20:28:00,
2013-05-31 15:34:00,75.6,52.8,28.17,NNE,22,0.0,0.0,45,0.00,,---,0.00,VWS V14.01,2013-05-31 20:34:00,
2013-05-31 15:39:00,75.6,52.8,28.17,NNE,22,0.0,0.0,45,0.00,,---,0.00,VWS V14.01,2013-05-31 20:39:00,
2013-05-31 15:45:00,75.6,52.8,28.17,NNE,22,0.0,0.0,45,0.00,,---,0.00,VWS V14.01,2013-05-31 20:45:00,
2013-05-31 15:50:00,75.7,52.9,28.17,NNE,22,0.0,0.0,45,0.00,,---,0.00,VWS V14.01,2013-05-31 20:50:00,
2013-05-31 15:56:00,75.7,52.9,28.17,NNE,22,0.0,0.0,45,0.00,,---,0.00,VWS V14.01,2013-05-31 20:56:00,
2013-05-31 16:02:00,75.7,52.9,28.14,NNE,22,0.0,0.0,45,0.00,,---,0.00,VWS V14.01,2013-05-31 21:02:00,
2013-05-31 16:07:00,75.7,52.9,28.14,NNE,22,0.0,0.0,45,0.00,,---,0.00,VWS V14.01,2013-05-31 21:07:00,
2013-05-31 16:13:00,75.9,53.1,28.14,NNE,22,0.0,0.0,45,0.00,,---,0.00,VWS V14.01,2013-05-31 21:13:00,
2013-05-31 16:18:00,75.9,53.1,28.14,NNE,22,0.0,0.0,45,0.00,,---,0.00,VWS V14.01,2013-05-31 21:18:00,
2013-05-31 16:23:00,76.1,53.2,28.14,NNE,22,0.0,0.0,45,0.00,,---,0.00,VWS V14.01,2013-05-31 21:23:00,
2013-05-31 16:29:00,76.1,53.2,28.14,NNE,22,0.0,0.0,45,0.00,,---,0.00,VWS V14.01,2013-05-31 21:29:00,
2013-05-31 16:35:00,76.3,53.4,28.14,NNE,22,0.0,0.0,45,0.00,,---,0.00,VWS V14.01,2013-05-31 21:35:00,
2013-05-31 16:41:00,76.3,53.4,28.14,NNE,22,0.0,0.0,45,0.00,,---,0.00,VWS V14.01,2013-05-31 21:41:00,
2013-05-31 16:46:00,76.3,53.4,28.14,NNE,22,0.0,0.0,45,0.00,,---,0.00,VWS V14.01,2013-05-31 21:46:00,
2013-05-31 16:52:00,76.5,53.6,28.14,NNE,22,0.0,0.0,45,0.00,,---,0.00,VWS V14.01,2013-05-31 21:52:00,
2013-05-31 16:58:00,76.5,53.6,28.14,NNE,22,0.0,0.0,45,0.00,,---,0.00,VWS V14.01,2013-05-31 21:58:00,
2013-05-31 17:03:00,76.6,53.7,28.14,NNE,22,0.0,0.0,45,0.00,,---,0.00,VWS V14.01,2013-05-31 22:03:00,
2013-05-31 17:09:00,76.6,53.7,28.14,NNE,22,0.0,0.0,45,0.00,,---,0.00,VWS V14.01,2013-05-31 22:09:00,
2013-05-31 17:15:00,76.8,53.9,28.14,NNE,22,0.0,0.0,45,0.00,,---,0.00,VWS V14.01,2013-05-31 22:15:00,
2013-05-31 17:20:00,76.8,53.9,28.14,NNE,22,0.0,0.0,45,0.00,,---,0.00,VWS V14.01,2013-05-31 22:20:00,
2013-05-31 17:26:00,77.0,53.4,28.14,NNE,22,0.0,0.0,44,0.00,,---,0.00,VWS V14.01,2013-05-31 22:26:00,
2013-05-31 17:31:00,77.0,53.4,28.14,NNE,22,0.0,0.0,44,0.00,,---,0.00,VWS V14.01,2013-05-31 22:31:00,
2013-05-31 17:36:00,77.0,53.4,28.14,NNE,22,0.0,0.0,44,0.00,,---,0.00,VWS V14.01,2013-05-31 22:36:00,
2013-05-31 17:42:00,77.2,53.6,28.14,NNE,22,0.0,0.0,44,0.00,,---,0.00,VWS V14.01,2013-05-31 22:42:00,
2013-05-31 17:48:00,77.2,53.6,28.14,NNE,22,0.0,0.0,44,0.00,,---,0.00,VWS V14.01,2013-05-31 22:48:00,
2013-05-31 17:54:00,77.2,53.0,28.14,NNE,22,0.0,0.0,43,0.00,,---,0.00,VWS V14.01,2013-05-31 22:54:00,
2013-05-31 17:59:00,77.2,53.0,28.14,NNE,22,0.0,0.0,43,0.00,,---,0.00,VWS V14.01,2013-05-31 22:59:00,
2013-05-31 18:05:00,77.2,53.0,28.14,NNE,22,0.0,0.0,43,0.00,,---,0.00,VWS V14.01,2013-05-31 23:05:00,
2013-05-31 18:11:00,77.2,53.0,28.14,NNE,22,0.0,0.0,43,0.00,,---,0.00,VWS V14.01,2013-05-31 23:11:00,
2013-05-31 18:17:00,77.2,53.0,28.14,NNE,22,0.0,0.0,43,0.00,,---,0.00,VWS V14.01,2013-05-31 23:17:00,
2013-05-31 18:22:00,77.2,53.0,28.14,NNE,22,0.0,0.0,43,0.00,,---,0.00,VWS V14.01,2013-05-31 23:22:00,
2013-05-31 18:27:00,77.2,53.0,28.14,NNE,22,0.0,0.0,43,0.00,,---,0.00,VWS V14.01,2013-05-31 23:27:00,
2013-05-31 18:33:00,77.2,53.0,28.14,NNE,22,0.0,0.0,43,0.00,,---,0.00,VWS V14.01,2013-05-31 23:33:00,
2013-05-31 18:38:00,77.2,53.0,28.14,NNE,22,0.0,0.0,43,0.00,,---,0.00,VWS V14.01,2013-05-31 23:38:00,
2013-05-31 18:44:00,77.2,52.3,28.14,NNE,22,0.0,0.0,42,0.00,,---,0.00,VWS V14.01,2013-05-31 23:44:00,
2013-05-31 18:50:00,77.2,52.3,28.14,NNE,22,0.0,0.0,42,0.00,,---,0.00,VWS V14.01,2013-05-31 23:50:00,
2013-05-31 18:56:00,77.2,52.3,28.14,NNE,22,0.0,0.0,42,0.00,,---,0.00,VWS V14.01,2013-05-31 23:56:00,
2013-05-31 19:01:00,77.2,52.3,28.11,NNE,22,0.0,0.0,42,0.00,,---,0.00,VWS V14.01,2013-06-01 00:01:00,
2013-05-31 19:07:00,77.2,52.3,28.11,NNE,22,0.0,0.0,42,0.00,,---,0.00,VWS V14.01,2013-06-01 00:07:00,
2013-05-31 19:12:00,77.2,52.3,28.11,NNE,22,0.0,0.0,42,0.00,,---,0.00,VWS V14.01,2013-06-01 00:12:00,
2013-05-31 19:18:00,77.2,52.3,28.14,NNE,22,0.0,0.0,42,0.00,,---,0.00,VWS V14.01,2013-06-01 00:18:00,
2013-05-31 19:24:00,77.2,52.3,28.14,NNE,22,0.0,0.0,42,0.00,,---,0.00,VWS V14.01,2013-06-01 00:24:00,
2013-05-31 19:30:00,77.2,52.3,28.14,NNE,22,0.0,0.0,42,0.00,,---,0.00,VWS V14.01,2013-06-01 00:30:00,
2013-05-31 19:35:00,77.0,52.2,28.14,NNE,22,0.0,0.0,42,0.00,,---,0.00,VWS V14.01,2013-06-01 00:35:00,
2013-05-31 19:41:00,77.0,52.2,28.14,NNE,22,0.0,0.0,42,0.00,,---,0.00,VWS V14.01,2013-06-01 00:41:00,
2013-05-31 19:47:00,77.0,52.2,28.14,NNE,22,0.0,0.0,42,0.00,,---,0.00,VWS V14.01,2013-06-01 00:47:00,
2013-05-31 19:52:00,77.0,52.2,28.14,NNE,22,0.0,0.0,42,0.00,,---,0.00,VWS V14.01,2013-06-01 00:52:00,
2013-05-31 19:58:00,77.0,52.2,28.14,NNE,22,0.0,0.0,42,0.00,,---,0.00,VWS V14.01,2013-06-01 00:58:00,
2013-05-31 20:04:00,77.0,51.5,28.14,NNE,22,0.0,0.0,41,0.00,,---,0.00,VWS V14.01,2013-06-01 01:04:00,
2013-05-31 20:09:00,77.0,51.5,28.14,NNE,22,0.0,0.0,41,0.00,,---,0.00,VWS V14.01,2013-06-01 01:09:00,
2013-05-31 20:14:00,77.0,51.5,28.14,NNE,22,0.0,0.0,41,0.00,,---,0.00,VWS V14.01,2013-06-01 01:14:00,
2013-05-31 20:20:00,77.0,51.5,28.14,NNE,22,0.0,0.0,41,0.00,,---,0.00,VWS V14.01,2013-06-01 01:20:00,
2013-05-31 20:25:00,77.0,51.5,28.14,NNE,22,0.0,0.0,41,0.00,,---,0.00,VWS V14.01,2013-06-01 01:25:00,
2013-05-31 20:30:00,77.0,51.5,28.14,NNE,22,0.0,0.0,41,0.00,,---,0.00,VWS V14.01,2013-06-01 01:30:00,
2013-05-31 20:36:00,77.0,51.5,28.14,NNE,22,0.0,0.0,41,0.00,,---,0.00,VWS V14.01,2013-06-01 01:36:00,
2013-05-31 20:41:00,77.0,51.5,28.14,NNE,22,0.0,0.0,41,0.00,,---,0.00,VWS V14.01,2013-06-01 01:41:00,
2013-05-31 20:47:00,76.8,51.4,28.14,NNE,22,0.0,0.0,41,0.00,,---,0.00,VWS V14.01,2013-06-01 01:47:00,
2013-05-31 20:52:00,76.8,51.4,28.14,NNE,22,0.0,0.0,41,0.00,,---,0.00,VWS V14.01,2013-06-01 01:52:00,
2013-05-31 20:58:00,76.8,51.4,28.14,NNE,22,0.0,0.0,41,0.00,,---,0.00,VWS V14.01,2013-06-01 01:58:00,
2013-05-31 21:04:00,76.8,51.4,28.14,NNE,22,0.0,0.0,41,0.00,,---,0.00,VWS V14.01,2013-06-01 02:04:00,
2013-05-31 21:10:00,76.8,51.4,28.14,NNE,22,0.0,0.0,41,0.00,,---,0.00,VWS V14.01,2013-06-01 02:10:00,
2013-05-31 21:15:00,76.8,51.4,28.17,NNE,22,0.0,0.0,41,0.00,,---,0.00,VWS V14.01,2013-06-01 02:15:00,
2013-05-31 21:21:00,76.8,50.7,28.17,NNE,22,0.0,0.0,40,0.00,,---,0.00,VWS V14.01,2013-06-01 02:21:00,
2013-05-31 21:26:00,76.6,50.5,28.17,NNE,22,0.0,0.0,40,0.00,,---,0.00,VWS V14.01,2013-06-01 02:26:00,
2013-05-31 21:32:00,76.6,50.5,28.17,NNE,22,0.0,0.0,40,0.00,,---,0.00,VWS V14.01,2013-06-01 02:32:00,
2013-05-31 21:37:00,76.6,50.5,28.17,NNE,22,0.0,0.0,40,0.00,,---,0.00,VWS V14.01,2013-06-01 02:37:00,
2013-05-31 21:43:00,76.6,50.5,28.17,NNE,22,0.0,0.0,40,0.00,,---,0.00,VWS V14.01,2013-06-01 02:43:00,
2013-05-31 21:49:00,76.6,50.5,28.17,NNE,22,0.0,0.0,40,0.00,,---,0.00,VWS V14.01,2013-06-01 02:49:00,
2013-05-31 21:54:00,76.6,50.5,28.17,NNE,22,0.0,0.0,40,0.00,,---,0.00,VWS V14.01,2013-06-01 02:54:00,
2013-05-31 22:00:00,76.6,50.5,28.20,NNE,22,0.0,0.0,40,0.00,,---,0.00,VWS V14.01,2013-06-01 03:00:00,
2013-05-31 22:06:00,76.6,50.5,28.20,NNE,22,0.0,0.0,40,0.00,,---,0.00,VWS V14.01,2013-06-01 03:06:00,
2013-05-31 22:11:00,76.5,49.7,28.20,NNE,22,0.0,0.0,39,0.00,,---,0.00,VWS V14.01,2013-06-01 03:11:00,
2013-05-31 22:17:00,76.5,49.7,28.20,NNE,22,0.0,0.0,39,0.00,,---,0.00,VWS V14.01,2013-06-01 03:17:00,
2013-05-31 22:22:00,76.5,49.7,28.20,NNE,22,0.0,0.0,39,0.00,,---,0.00,VWS V14.01,2013-06-01 03:22:00,
2013-05-31 22:27:00,76.5,49.7,28.20,NNE,22,0.0,0.0,39,0.00,,---,0.00,VWS V14.01,2013-06-01 03:27:00,
2013-05-31 22:32:00,76.5,49.7,28.20,NNE,22,0.0,0.0,39,0.00,,---,0.00,VWS V14.01,2013-06-01 03:32:00,
2013-05-31 22:37:00,76.5,50.4,28.20,NNE,22,0.0,0.0,40,0.00,,---,0.00,VWS V14.01,2013-06-01 03:37:00,
2013-05-31 22:43:00,76.5,50.4,28.20,NNE,22,0.0,0.0,40,0.00,,---,0.00,VWS V14.01,2013-06-01 03:43:00,
2013-05-31 22:48:00,76.5,50.4,28.20,NNE,22,0.0,0.0,40,0.00,,---,0.00,VWS V14.01,2013-06-01 03:48:00,
2013-05-31 22:53:00,76.5,50.4,28.20,NNE,22,0.0,0.0,40,0.00,,---,0.00,VWS V14.01,2013-06-01 03:53:00,
2013-05-31 22:59:00,76.5,49.7,28.23,NNE,22,0.0,0.0,39,0.00,,---,0.00,VWS V14.01,2013-06-01 03:59:00,
2013-05-31 23:01:00,76.5,49.7,28.23,NNE,22,0.0,0.0,39,0.00,,---,0.00,VWS V14.01,2013-06-01 04:01:00,
2013-05-31 23:02:00,76.5,49.7,28.23,NNE,22,0.0,0.0,39,0.00,,---,0.00,VWS V14.01,2013-06-01 04:02:00,
2013-05-31 23:03:00,76.5,49.7,28.23,NNE,22,0.0,0.0,39,0.00,,---,0.00,VWS V14.01,2013-06-01 04:03:00,
2013-05-31 23:09:00,76.5,49.7,28.23,NNE,22,0.0,0.0,39,0.00,,---,0.00,VWS V14.01,2013-06-01 04:09:00,
2013-05-31 23:12:00,76.5,49.7,28.23,NNE,22,0.0,0.0,39,0.00,,---,0.00,VWS V14.01,2013-06-01 04:12:00,
2013-05-31 23:13:00,76.5,49.7,28.23,NNE,22,0.0,0.0,39,0.00,,---,0.00,VWS V14.01,2013-06-01 04:13:00,
2013-05-31 23:18:00,76.6,49.8,28.23,NNE,22,0.0,0.0,39,0.00,,---,0.00,VWS V14.01,2013-06-01 04:18:00,
2013-05-31 23:24:00,76.6,49.8,28.23,NNE,22,0.0,0.0,39,0.00,,---,0.00,VWS V14.01,2013-06-01 04:24:00,
2013-05-31 23:30:00,76.6,49.8,28.23,NNE,22,0.0,0.0,39,0.00,,---,0.00,VWS V14.01,2013-06-01 04:30:00,
2013-05-31 23:36:00,76.6,49.8,28.23,NNE,22,0.0,0.0,39,0.00,,---,0.00,VWS V14.01,2013-06-01 04:36:00,
2013-05-31 23:42:00,76.6,49.8,28.23,NNE,22,0.0,0.0,39,0.00,,---,0.00,VWS V14.01,2013-06-01 04:42:00,
2013-05-31 23:48:00,76.8,50.0,28.23,NNE,22,0.0,0.0,39,0.00,,---,0.00,VWS V14.01,2013-06-01 04:48:00,
2013-05-31 23:53:00,76.8,50.0,28.23,NNE,22,0.0,0.0,39,0.00,,---,0.00,VWS V14.01,2013-06-01 04:53:00,
2013-05-31 23:59:00,76.8,49.3,28.23,NNE,22,0.0,0.0,38,0.00,,---,0.00,VWS V14.01,2013-06-01 04:59:00,